sensor_id;sensor_type;location;lat;lon;timestamp;P1;durP1;ratioP1;P2;durP2;ratioP2
27728;SDS011;15126;42.186;24.340;2023-04-24T00:01:56;11.33;;;10.33;;
27728;SDS011;15126;42.186;24.340;2023-04-24T00:04:23;12.63;;;10.07;;
27728;SDS011;15126;42.186;24.340;2023-04-24T00:06:51;14.00;;;9.23;;
27728;SDS011;15126;42.186;24.340;2023-04-24T00:09:19;13.50;;;10.07;;
27728;SDS011;15126;42.186;24.340;2023-04-24T00:11:47;11.13;;;10.13;;
27728;SDS011;15126;42.186;24.340;2023-04-24T00:14:14;15.37;;;10.73;;
27728;SDS011;15126;42.186;24.340;2023-04-24T00:16:41;11.87;;;10.67;;
27728;SDS011;15126;42.186;24.340;2023-04-24T00:19:07;11.67;;;10.53;;
27728;SDS011;15126;42.186;24.340;2023-04-24T00:21:34;13.40;;;11.93;;
27728;SDS011;15126;42.186;24.340;2023-04-24T00:24:01;12.10;;;11.00;;
27728;SDS011;15126;42.186;24.340;2023-04-24T00:26:28;12.00;;;11.00;;
27728;SDS011;15126;42.186;24.340;2023-04-24T00:28:56;12.83;;;11.57;;
27728;SDS011;15126;42.186;24.340;2023-04-24T00:31:23;13.17;;;11.77;;
27728;SDS011;15126;42.186;24.340;2023-04-24T00:33:49;14.13;;;10.87;;
27728;SDS011;15126;42.186;24.340;2023-04-24T00:36:16;12.13;;;10.90;;
27728;SDS011;15126;42.186;24.340;2023-04-24T00:38:44;14.17;;;10.63;;
27728;SDS011;15126;42.186;24.340;2023-04-24T00:41:11;12.13;;;10.13;;
27728;SDS011;15126;42.186;24.340;2023-04-24T00:43:38;12.30;;;11.07;;
27728;SDS011;15126;42.186;24.340;2023-04-24T00:46:07;11.17;;;9.87;;
27728;SDS011;15126;42.186;24.340;2023-04-24T00:48:34;10.30;;;9.43;;
27728;SDS011;15126;42.186;24.340;2023-04-24T00:51:01;11.33;;;10.23;;
27728;SDS011;15126;42.186;24.340;2023-04-24T00:53:27;13.40;;;9.63;;
27728;SDS011;15126;42.186;24.340;2023-04-24T00:55:54;13.20;;;10.20;;
27728;SDS011;15126;42.186;24.340;2023-04-24T00:58:22;12.13;;;10.93;;
27728;SDS011;15126;42.186;24.340;2023-04-24T01:00:49;13.57;;;10.03;;
27728;SDS011;15126;42.186;24.340;2023-04-24T01:03:20;17.10;;;10.83;;
27728;SDS011;15126;42.186;24.340;2023-04-24T01:05:48;13.73;;;11.30;;
27728;SDS011;15126;42.186;24.340;2023-04-24T01:08:16;14.27;;;12.97;;
27728;SDS011;15126;42.186;24.340;2023-04-24T01:10:43;12.60;;;11.40;;
27728;SDS011;15126;42.186;24.340;2023-04-24T01:13:11;14.67;;;11.97;;
27728;SDS011;15126;42.186;24.340;2023-04-24T01:15:38;12.17;;;11.03;;
27728;SDS011;15126;42.186;24.340;2023-04-24T01:18:04;12.37;;;11.27;;
27728;SDS011;15126;42.186;24.340;2023-04-24T01:20:33;14.53;;;12.13;;
27728;SDS011;15126;42.186;24.340;2023-04-24T01:23:03;15.87;;;13.43;;
27728;SDS011;15126;42.186;24.340;2023-04-24T01:25:30;16.73;;;13.63;;
27728;SDS011;15126;42.186;24.340;2023-04-24T01:27:57;23.37;;;15.97;;
27728;SDS011;15126;42.186;24.340;2023-04-24T01:30:24;17.60;;;15.67;;
27728;SDS011;15126;42.186;24.340;2023-04-24T01:32:51;19.57;;;15.90;;
27728;SDS011;15126;42.186;24.340;2023-04-24T01:35:18;18.90;;;15.60;;
27728;SDS011;15126;42.186;24.340;2023-04-24T01:37:45;18.27;;;15.90;;
27728;SDS011;15126;42.186;24.340;2023-04-24T01:40:14;17.57;;;15.70;;
27728;SDS011;15126;42.186;24.340;2023-04-24T01:42:41;18.00;;;16.07;;
27728;SDS011;15126;42.186;24.340;2023-04-24T01:45:09;18.23;;;16.33;;
27728;SDS011;15126;42.186;24.340;2023-04-24T01:47:37;17.43;;;15.80;;
27728;SDS011;15126;42.186;24.340;2023-04-24T01:50:05;20.93;;;16.63;;
27728;SDS011;15126;42.186;24.340;2023-04-24T01:52:32;17.73;;;16.13;;
27728;SDS011;15126;42.186;24.340;2023-04-24T01:55:01;17.60;;;15.90;;
27728;SDS011;15126;42.186;24.340;2023-04-24T01:57:30;18.67;;;16.67;;
27728;SDS011;15126;42.186;24.340;2023-04-24T01:59:57;23.13;;;16.47;;
27728;SDS011;15126;42.186;24.340;2023-04-24T02:02:24;16.57;;;14.97;;
27728;SDS011;15126;42.186;24.340;2023-04-24T02:04:52;15.67;;;14.27;;
27728;SDS011;15126;42.186;24.340;2023-04-24T02:07:19;17.07;;;15.13;;
27728;SDS011;15126;42.186;24.340;2023-04-24T02:09:46;17.10;;;15.50;;
27728;SDS011;15126;42.186;24.340;2023-04-24T02:12:13;17.37;;;14.47;;
27728;SDS011;15126;42.186;24.340;2023-04-24T02:14:41;16.50;;;14.70;;
27728;SDS011;15126;42.186;24.340;2023-04-24T02:17:08;16.47;;;15.03;;
27728;SDS011;15126;42.186;24.340;2023-04-24T02:19:38;19.43;;;14.47;;
27728;SDS011;15126;42.186;24.340;2023-04-24T02:22:05;15.30;;;13.90;;
27728;SDS011;15126;42.186;24.340;2023-04-24T02:24:32;16.73;;;13.83;;
27728;SDS011;15126;42.186;24.340;2023-04-24T02:26:58;14.57;;;13.07;;
27728;SDS011;15126;42.186;24.340;2023-04-24T02:29:25;15.80;;;14.30;;
27728;SDS011;15126;42.186;24.340;2023-04-24T02:31:53;15.77;;;13.90;;
27728;SDS011;15126;42.186;24.340;2023-04-24T02:34:20;17.13;;;13.67;;
27728;SDS011;15126;42.186;24.340;2023-04-24T02:36:48;16.43;;;14.87;;
27728;SDS011;15126;42.186;24.340;2023-04-24T02:39:14;14.47;;;13.07;;
27728;SDS011;15126;42.186;24.340;2023-04-24T02:41:42;18.43;;;13.83;;
27728;SDS011;15126;42.186;24.340;2023-04-24T02:44:09;20.23;;;14.23;;
27728;SDS011;15126;42.186;24.340;2023-04-24T02:46:36;13.67;;;12.37;;
27728;SDS011;15126;42.186;24.340;2023-04-24T02:49:04;14.83;;;13.30;;
27728;SDS011;15126;42.186;24.340;2023-04-24T02:51:31;14.60;;;12.80;;
27728;SDS011;15126;42.186;24.340;2023-04-24T02:53:57;16.80;;;13.77;;
27728;SDS011;15126;42.186;24.340;2023-04-24T02:56:24;13.90;;;12.60;;
27728;SDS011;15126;42.186;24.340;2023-04-24T02:58:51;14.33;;;12.80;;
27728;SDS011;15126;42.186;24.340;2023-04-24T03:01:18;13.97;;;12.27;;
27728;SDS011;15126;42.186;24.340;2023-04-24T03:03:45;14.37;;;12.03;;
27728;SDS011;15126;42.186;24.340;2023-04-24T03:06:13;15.13;;;12.47;;
27728;SDS011;15126;42.186;24.340;2023-04-24T03:08:40;15.00;;;12.43;;
27728;SDS011;15126;42.186;24.340;2023-04-24T03:11:07;12.00;;;10.80;;
27728;SDS011;15126;42.186;24.340;2023-04-24T03:13:34;12.93;;;11.63;;
27728;SDS011;15126;42.186;24.340;2023-04-24T03:16:00;12.10;;;11.10;;
27728;SDS011;15126;42.186;24.340;2023-04-24T03:18:27;14.10;;;12.80;;
27728;SDS011;15126;42.186;24.340;2023-04-24T03:20:54;14.83;;;11.27;;
27728;SDS011;15126;42.186;24.340;2023-04-24T03:23:22;12.53;;;11.13;;
27728;SDS011;15126;42.186;24.340;2023-04-24T03:25:49;12.23;;;11.03;;
27728;SDS011;15126;42.186;24.340;2023-04-24T03:28:16;10.83;;;9.90;;
27728;SDS011;15126;42.186;24.340;2023-04-24T03:30:43;12.33;;;11.17;;
27728;SDS011;15126;42.186;24.340;2023-04-24T03:33:09;13.13;;;11.73;;
27728;SDS011;15126;42.186;24.340;2023-04-24T03:35:36;14.27;;;12.40;;
27728;SDS011;15126;42.186;24.340;2023-04-24T03:38:03;14.07;;;12.80;;
27728;SDS011;15126;42.186;24.340;2023-04-24T03:40:31;13.87;;;12.13;;
27728;SDS011;15126;42.186;24.340;2023-04-24T03:42:58;20.87;;;12.63;;
27728;SDS011;15126;42.186;24.340;2023-04-24T03:45:25;16.53;;;14.03;;
27728;SDS011;15126;42.186;24.340;2023-04-24T03:47:52;17.73;;;13.90;;
27728;SDS011;15126;42.186;24.340;2023-04-24T03:50:19;17.10;;;15.33;;
27728;SDS011;15126;42.186;24.340;2023-04-24T03:52:45;16.30;;;14.23;;
27728;SDS011;15126;42.186;24.340;2023-04-24T03:55:12;15.93;;;14.30;;
27728;SDS011;15126;42.186;24.340;2023-04-24T03:57:40;16.30;;;14.87;;
27728;SDS011;15126;42.186;24.340;2023-04-24T04:00:08;17.67;;;15.03;;
27728;SDS011;15126;42.186;24.340;2023-04-24T04:02:35;19.07;;;14.60;;
27728;SDS011;15126;42.186;24.340;2023-04-24T04:05:02;16.20;;;14.50;;
27728;SDS011;15126;42.186;24.340;2023-04-24T04:07:29;18.60;;;14.83;;
27728;SDS011;15126;42.186;24.340;2023-04-24T04:09:55;15.47;;;14.00;;
27728;SDS011;15126;42.186;24.340;2023-04-24T04:12:22;17.53;;;15.43;;
27728;SDS011;15126;42.186;24.340;2023-04-24T04:14:50;16.53;;;14.00;;
27728;SDS011;15126;42.186;24.340;2023-04-24T04:17:17;14.50;;;12.97;;
27728;SDS011;15126;42.186;24.340;2023-04-24T04:19:44;16.60;;;14.90;;
27728;SDS011;15126;42.186;24.340;2023-04-24T04:22:11;16.40;;;14.70;;
27728;SDS011;15126;42.186;24.340;2023-04-24T04:24:37;16.73;;;15.03;;
27728;SDS011;15126;42.186;24.340;2023-04-24T04:27:06;14.67;;;13.17;;
27728;SDS011;15126;42.186;24.340;2023-04-24T04:29:33;14.53;;;13.07;;
27728;SDS011;15126;42.186;24.340;2023-04-24T04:32:02;13.23;;;11.83;;
27728;SDS011;15126;42.186;24.340;2023-04-24T04:34:29;17.97;;;13.57;;
27728;SDS011;15126;42.186;24.340;2023-04-24T04:36:56;19.03;;;14.30;;
27728;SDS011;15126;42.186;24.340;2023-04-24T04:39:26;15.20;;;13.70;;
27728;SDS011;15126;42.186;24.340;2023-04-24T04:41:53;19.17;;;14.60;;
27728;SDS011;15126;42.186;24.340;2023-04-24T04:44:20;13.57;;;12.13;;
27728;SDS011;15126;42.186;24.340;2023-04-24T04:46:48;15.30;;;11.10;;
27728;SDS011;15126;42.186;24.340;2023-04-24T04:49:19;13.70;;;12.30;;
27728;SDS011;15126;42.186;24.340;2023-04-24T04:51:46;14.63;;;10.70;;
27728;SDS011;15126;42.186;24.340;2023-04-24T04:54:13;12.63;;;11.40;;
27728;SDS011;15126;42.186;24.340;2023-04-24T04:56:40;11.57;;;10.47;;
27728;SDS011;15126;42.186;24.340;2023-04-24T04:59:07;11.87;;;10.23;;
27728;SDS011;15126;42.186;24.340;2023-04-24T05:01:34;9.20;;;8.27;;
27728;SDS011;15126;42.186;24.340;2023-04-24T05:04:01;9.23;;;8.43;;
27728;SDS011;15126;42.186;24.340;2023-04-24T05:06:29;8.63;;;7.60;;
27728;SDS011;15126;42.186;24.340;2023-04-24T05:08:56;12.60;;;8.90;;
27728;SDS011;15126;42.186;24.340;2023-04-24T05:11:23;12.03;;;10.20;;
27728;SDS011;15126;42.186;24.340;2023-04-24T05:13:50;10.23;;;8.50;;
27728;SDS011;15126;42.186;24.340;2023-04-24T05:16:16;11.87;;;10.67;;
27728;SDS011;15126;42.186;24.340;2023-04-24T05:18:43;14.17;;;8.97;;
27728;SDS011;15126;42.186;24.340;2023-04-24T05:21:10;14.80;;;9.50;;
27728;SDS011;15126;42.186;24.340;2023-04-24T05:23:38;13.43;;;9.83;;
27728;SDS011;15126;42.186;24.340;2023-04-24T05:26:05;11.70;;;9.13;;
27728;SDS011;15126;42.186;24.340;2023-04-24T05:28:32;12.90;;;9.40;;
27728;SDS011;15126;42.186;24.340;2023-04-24T05:30:59;11.27;;;10.17;;
27728;SDS011;15126;42.186;24.340;2023-04-24T05:33:26;13.00;;;9.57;;
27728;SDS011;15126;42.186;24.340;2023-04-24T05:35:52;11.43;;;9.33;;
27728;SDS011;15126;42.186;24.340;2023-04-24T05:38:19;12.73;;;9.00;;
27728;SDS011;15126;42.186;24.340;2023-04-24T05:40:47;11.50;;;10.13;;
27728;SDS011;15126;42.186;24.340;2023-04-24T05:43:14;20.53;;;10.33;;
27728;SDS011;15126;42.186;24.340;2023-04-24T05:45:41;13.63;;;9.07;;
27728;SDS011;15126;42.186;24.340;2023-04-24T05:48:08;13.43;;;9.67;;
27728;SDS011;15126;42.186;24.340;2023-04-24T05:50:35;13.13;;;9.93;;
27728;SDS011;15126;42.186;24.340;2023-04-24T05:53:01;12.40;;;9.90;;
27728;SDS011;15126;42.186;24.340;2023-04-24T05:55:28;11.53;;;10.20;;
27728;SDS011;15126;42.186;24.340;2023-04-24T05:57:58;12.13;;;9.87;;
27728;SDS011;15126;42.186;24.340;2023-04-24T06:00:25;11.53;;;9.10;;
27728;SDS011;15126;42.186;24.340;2023-04-24T06:02:53;13.30;;;9.70;;
27728;SDS011;15126;42.186;24.340;2023-04-24T06:05:20;12.13;;;10.80;;
27728;SDS011;15126;42.186;24.340;2023-04-24T06:07:47;14.77;;;9.90;;
27728;SDS011;15126;42.186;24.340;2023-04-24T06:10:14;20.50;;;10.33;;
27728;SDS011;15126;42.186;24.340;2023-04-24T06:12:41;11.60;;;9.57;;
27728;SDS011;15126;42.186;24.340;2023-04-24T06:15:09;16.03;;;9.20;;
27728;SDS011;15126;42.186;24.340;2023-04-24T06:17:36;11.53;;;10.20;;
27728;SDS011;15126;42.186;24.340;2023-04-24T06:20:03;10.67;;;9.67;;
27728;SDS011;15126;42.186;24.340;2023-04-24T06:22:32;12.37;;;9.53;;
27728;SDS011;15126;42.186;24.340;2023-04-24T06:24:59;11.47;;;9.23;;
27728;SDS011;15126;42.186;24.340;2023-04-24T06:27:26;11.67;;;10.43;;
27728;SDS011;15126;42.186;24.340;2023-04-24T06:29:53;13.90;;;9.10;;
27728;SDS011;15126;42.186;24.340;2023-04-24T06:32:22;10.37;;;9.33;;
27728;SDS011;15126;42.186;24.340;2023-04-24T06:34:50;17.73;;;9.53;;
27728;SDS011;15126;42.186;24.340;2023-04-24T06:37:17;11.83;;;9.50;;
27728;SDS011;15126;42.186;24.340;2023-04-24T06:39:44;12.10;;;9.07;;
27728;SDS011;15126;42.186;24.340;2023-04-24T06:42:11;9.87;;;8.87;;
27728;SDS011;15126;42.186;24.340;2023-04-24T06:44:38;12.00;;;9.33;;
27728;SDS011;15126;42.186;24.340;2023-04-24T06:47:06;11.90;;;9.47;;
27728;SDS011;15126;42.186;24.340;2023-04-24T06:49:35;10.03;;;9.00;;
27728;SDS011;15126;42.186;24.340;2023-04-24T06:52:02;12.80;;;10.40;;
27728;SDS011;15126;42.186;24.340;2023-04-24T06:54:29;17.03;;;8.67;;
27728;SDS011;15126;42.186;24.340;2023-04-24T06:56:56;11.33;;;9.67;;
27728;SDS011;15126;42.186;24.340;2023-04-24T06:59:23;16.27;;;9.40;;
27728;SDS011;15126;42.186;24.340;2023-04-24T07:01:50;12.93;;;9.40;;
27728;SDS011;15126;42.186;24.340;2023-04-24T07:04:17;11.77;;;9.63;;
27728;SDS011;15126;42.186;24.340;2023-04-24T07:06:45;11.57;;;8.93;;
27728;SDS011;15126;42.186;24.340;2023-04-24T07:09:14;8.97;;;8.17;;
27728;SDS011;15126;42.186;24.340;2023-04-24T07:11:41;14.03;;;9.57;;
27728;SDS011;15126;42.186;24.340;2023-04-24T07:14:08;10.30;;;8.90;;
27728;SDS011;15126;42.186;24.340;2023-04-24T07:16:35;14.40;;;9.40;;
27728;SDS011;15126;42.186;24.340;2023-04-24T07:19:01;14.93;;;10.07;;
27728;SDS011;15126;42.186;24.340;2023-04-24T07:21:28;10.67;;;9.53;;
27728;SDS011;15126;42.186;24.340;2023-04-24T07:23:57;11.87;;;10.67;;
27728;SDS011;15126;42.186;24.340;2023-04-24T07:26:24;10.13;;;9.10;;
27728;SDS011;15126;42.186;24.340;2023-04-24T07:28:52;16.10;;;9.87;;
27728;SDS011;15126;42.186;24.340;2023-04-24T07:31:19;17.70;;;10.53;;
27728;SDS011;15126;42.186;24.340;2023-04-24T07:33:46;13.70;;;9.77;;
27728;SDS011;15126;42.186;24.340;2023-04-24T07:36:12;12.00;;;9.57;;
27728;SDS011;15126;42.186;24.340;2023-04-24T07:38:44;12.97;;;10.40;;
27728;SDS011;15126;42.186;24.340;2023-04-24T07:41:12;10.90;;;9.90;;
27728;SDS011;15126;42.186;24.340;2023-04-24T07:43:39;13.13;;;10.13;;
27728;SDS011;15126;42.186;24.340;2023-04-24T07:46:06;10.70;;;9.60;;
27728;SDS011;15126;42.186;24.340;2023-04-24T07:48:33;17.23;;;10.07;;
27728;SDS011;15126;42.186;24.340;2023-04-24T07:51:00;12.23;;;10.50;;
27728;SDS011;15126;42.186;24.340;2023-04-24T07:53:27;12.07;;;8.30;;
27728;SDS011;15126;42.186;24.340;2023-04-24T07:55:54;11.50;;;8.43;;
27728;SDS011;15126;42.186;24.340;2023-04-24T07:58:22;11.60;;;8.53;;
27728;SDS011;15126;42.186;24.340;2023-04-24T08:00:49;14.37;;;8.13;;
27728;SDS011;15126;42.186;24.340;2023-04-24T08:03:16;11.60;;;8.77;;
27728;SDS011;15126;42.186;24.340;2023-04-24T08:05:45;12.77;;;8.67;;
27728;SDS011;15126;42.186;24.340;2023-04-24T08:08:11;11.70;;;9.73;;
27728;SDS011;15126;42.186;24.340;2023-04-24T08:10:38;12.50;;;8.70;;
27728;SDS011;15126;42.186;24.340;2023-04-24T08:13:05;11.37;;;7.83;;
27728;SDS011;15126;42.186;24.340;2023-04-24T08:15:33;10.93;;;8.37;;
27728;SDS011;15126;42.186;24.340;2023-04-24T08:18:00;13.07;;;8.83;;
27728;SDS011;15126;42.186;24.340;2023-04-24T08:20:27;11.73;;;8.73;;
27728;SDS011;15126;42.186;24.340;2023-04-24T08:22:54;14.37;;;9.87;;
27728;SDS011;15126;42.186;24.340;2023-04-24T08:25:21;9.70;;;8.13;;
27728;SDS011;15126;42.186;24.340;2023-04-24T08:27:49;13.17;;;8.97;;
27728;SDS011;15126;42.186;24.340;2023-04-24T08:30:16;9.70;;;8.70;;
27728;SDS011;15126;42.186;24.340;2023-04-24T08:32:45;18.07;;;9.10;;
27728;SDS011;15126;42.186;24.340;2023-04-24T08:35:12;9.37;;;8.47;;
27728;SDS011;15126;42.186;24.340;2023-04-24T08:37:39;8.50;;;7.70;;
27728;SDS011;15126;42.186;24.340;2023-04-24T08:40:06;9.80;;;7.63;;
27728;SDS011;15126;42.186;24.340;2023-04-24T08:42:39;12.03;;;8.43;;
27728;SDS011;15126;42.186;24.340;2023-04-24T08:45:08;9.37;;;8.33;;
27728;SDS011;15126;42.186;24.340;2023-04-24T08:47:36;11.90;;;8.60;;
27728;SDS011;15126;42.186;24.340;2023-04-24T08:50:06;12.27;;;7.93;;
27728;SDS011;15126;42.186;24.340;2023-04-24T08:52:34;8.90;;;8.00;;
27728;SDS011;15126;42.186;24.340;2023-04-24T08:55:02;9.87;;;8.07;;
27728;SDS011;15126;42.186;24.340;2023-04-24T08:57:30;13.60;;;9.07;;
27728;SDS011;15126;42.186;24.340;2023-04-24T08:59:58;8.40;;;7.63;;
27728;SDS011;15126;42.186;24.340;2023-04-24T09:02:25;9.57;;;8.00;;
27728;SDS011;15126;42.186;24.340;2023-04-24T09:04:52;9.57;;;8.57;;
27728;SDS011;15126;42.186;24.340;2023-04-24T09:07:21;14.13;;;9.27;;
27728;SDS011;15126;42.186;24.340;2023-04-24T09:09:48;12.10;;;9.53;;
27728;SDS011;15126;42.186;24.340;2023-04-24T09:12:17;12.23;;;9.90;;
27728;SDS011;15126;42.186;24.340;2023-04-24T09:14:44;10.80;;;9.47;;
27728;SDS011;15126;42.186;24.340;2023-04-24T09:17:11;10.63;;;9.53;;
27728;SDS011;15126;42.186;24.340;2023-04-24T09:19:38;10.37;;;9.00;;
27728;SDS011;15126;42.186;24.340;2023-04-24T09:22:05;12.07;;;9.13;;
27728;SDS011;15126;42.186;24.340;2023-04-24T09:24:34;9.53;;;8.53;;
27728;SDS011;15126;42.186;24.340;2023-04-24T09:27:01;9.40;;;8.50;;
27728;SDS011;15126;42.186;24.340;2023-04-24T09:29:29;10.13;;;8.63;;
27728;SDS011;15126;42.186;24.340;2023-04-24T09:31:57;13.57;;;10.13;;
27728;SDS011;15126;42.186;24.340;2023-04-24T09:34:24;10.03;;;9.13;;
27728;SDS011;15126;42.186;24.340;2023-04-24T09:36:52;10.53;;;9.50;;
27728;SDS011;15126;42.186;24.340;2023-04-24T09:39:19;10.00;;;8.90;;
27728;SDS011;15126;42.186;24.340;2023-04-24T09:41:48;11.37;;;9.90;;
27728;SDS011;15126;42.186;24.340;2023-04-24T09:44:16;11.33;;;10.23;;
27728;SDS011;15126;42.186;24.340;2023-04-24T09:46:45;13.67;;;10.37;;
27728;SDS011;15126;42.186;24.340;2023-04-24T09:49:16;12.37;;;10.50;;
27728;SDS011;15126;42.186;24.340;2023-04-24T09:51:49;10.40;;;8.73;;
27728;SDS011;15126;42.186;24.340;2023-04-24T09:54:17;12.37;;;10.50;;
27728;SDS011;15126;42.186;24.340;2023-04-24T09:56:46;11.00;;;10.00;;
27728;SDS011;15126;42.186;24.340;2023-04-24T09:59:15;13.03;;;10.27;;
27728;SDS011;15126;42.186;24.340;2023-04-24T10:01:43;14.00;;;8.37;;
27728;SDS011;15126;42.186;24.340;2023-04-24T10:04:19;9.83;;;8.83;;
27728;SDS011;15126;42.186;24.340;2023-04-24T10:06:49;8.43;;;7.60;;
27728;SDS011;15126;42.186;24.340;2023-04-24T10:09:16;10.20;;;8.93;;
27728;SDS011;15126;42.186;24.340;2023-04-24T10:11:45;12.37;;;8.80;;
27728;SDS011;15126;42.186;24.340;2023-04-24T10:14:14;10.60;;;9.53;;
27728;SDS011;15126;42.186;24.340;2023-04-24T10:16:42;10.40;;;9.07;;
27728;SDS011;15126;42.186;24.340;2023-04-24T10:19:12;10.97;;;8.57;;
27728;SDS011;15126;42.186;24.340;2023-04-24T10:21:40;10.47;;;8.97;;
27728;SDS011;15126;42.186;24.340;2023-04-24T10:24:11;9.90;;;9.00;;
27728;SDS011;15126;42.186;24.340;2023-04-24T10:26:39;9.73;;;8.80;;
27728;SDS011;15126;42.186;24.340;2023-04-24T10:29:07;9.30;;;8.40;;
27728;SDS011;15126;42.186;24.340;2023-04-24T10:31:36;9.77;;;8.67;;
27728;SDS011;15126;42.186;24.340;2023-04-24T10:34:03;9.53;;;8.63;;
27728;SDS011;15126;42.186;24.340;2023-04-24T10:36:31;9.97;;;9.07;;
27728;SDS011;15126;42.186;24.340;2023-04-24T10:38:59;10.87;;;9.67;;
27728;SDS011;15126;42.186;24.340;2023-04-24T10:41:28;10.10;;;9.30;;
27728;SDS011;15126;42.186;24.340;2023-04-24T10:44:06;9.87;;;8.87;;
27728;SDS011;15126;42.186;24.340;2023-04-24T10:46:33;10.73;;;9.73;;
27728;SDS011;15126;42.186;24.340;2023-04-24T10:49:04;11.67;;;10.77;;
27728;SDS011;15126;42.186;24.340;2023-04-24T10:51:44;10.43;;;9.47;;
27728;SDS011;15126;42.186;24.340;2023-04-24T10:54:22;11.83;;;10.17;;
27728;SDS011;15126;42.186;24.340;2023-04-24T10:56:50;10.30;;;9.43;;
27728;SDS011;15126;42.186;24.340;2023-04-24T10:59:23;18.30;;;9.77;;
27728;SDS011;15126;42.186;24.340;2023-04-24T11:01:52;10.97;;;10.07;;
27728;SDS011;15126;42.186;24.340;2023-04-24T11:04:30;10.67;;;9.73;;
27728;SDS011;15126;42.186;24.340;2023-04-24T11:06:58;11.47;;;10.37;;
27728;SDS011;15126;42.186;24.340;2023-04-24T11:09:26;11.60;;;9.20;;
27728;SDS011;15126;42.186;24.340;2023-04-24T11:12:02;11.53;;;9.83;;
27728;SDS011;15126;42.186;24.340;2023-04-24T11:14:31;12.27;;;10.83;;
27728;SDS011;15126;42.186;24.340;2023-04-24T11:17:31;12.43;;;10.80;;
27728;SDS011;15126;42.186;24.340;2023-04-24T11:20:07;12.73;;;11.27;;
27728;SDS011;15126;42.186;24.340;2023-04-24T11:22:36;11.27;;;10.07;;
27728;SDS011;15126;42.186;24.340;2023-04-24T11:25:05;11.23;;;10.23;;
27728;SDS011;15126;42.186;24.340;2023-04-24T11:27:38;11.87;;;10.87;;
27728;SDS011;15126;42.186;24.340;2023-04-24T11:30:06;15.23;;;12.27;;
27728;SDS011;15126;42.186;24.340;2023-04-24T11:32:34;16.83;;;12.40;;
27728;SDS011;15126;42.186;24.340;2023-04-24T11:35:03;14.03;;;12.67;;
27728;SDS011;15126;42.186;24.340;2023-04-24T11:37:36;19.87;;;10.83;;
27728;SDS011;15126;42.186;24.340;2023-04-24T11:40:04;12.73;;;11.43;;
27728;SDS011;15126;42.186;24.340;2023-04-24T11:42:33;13.67;;;11.97;;
27728;SDS011;15126;42.186;24.340;2023-04-24T11:45:00;13.47;;;11.53;;
27728;SDS011;15126;42.186;24.340;2023-04-24T11:47:30;13.67;;;11.27;;
27728;SDS011;15126;42.186;24.340;2023-04-24T11:49:58;13.87;;;11.83;;
27728;SDS011;15126;42.186;24.340;2023-04-24T11:52:26;14.63;;;11.43;;
27728;SDS011;15126;42.186;24.340;2023-04-24T11:54:54;18.73;;;12.10;;
27728;SDS011;15126;42.186;24.340;2023-04-24T11:57:21;15.27;;;12.43;;
27728;SDS011;15126;42.186;24.340;2023-04-24T11:59:51;11.90;;;10.90;;
27728;SDS011;15126;42.186;24.340;2023-04-24T12:02:22;13.27;;;10.30;;
27728;SDS011;15126;42.186;24.340;2023-04-24T12:04:49;12.17;;;10.93;;
27728;SDS011;15126;42.186;24.340;2023-04-24T12:07:16;14.30;;;12.80;;
27728;SDS011;15126;42.186;24.340;2023-04-24T12:09:43;11.07;;;10.10;;
27728;SDS011;15126;42.186;24.340;2023-04-24T12:12:13;12.77;;;11.37;;
27728;SDS011;15126;42.186;24.340;2023-04-24T12:14:44;15.10;;;11.60;;
27728;SDS011;15126;42.186;24.340;2023-04-24T12:17:13;13.67;;;10.67;;
27728;SDS011;15126;42.186;24.340;2023-04-24T12:19:44;16.07;;;10.80;;
27728;SDS011;15126;42.186;24.340;2023-04-24T12:22:12;12.07;;;9.07;;
27728;SDS011;15126;42.186;24.340;2023-04-24T12:27:28;10.87;;;9.77;;
27728;SDS011;15126;42.186;24.340;2023-04-24T12:29:56;10.87;;;9.73;;
27728;SDS011;15126;42.186;24.340;2023-04-24T12:32:24;11.87;;;10.07;;
27728;SDS011;15126;42.186;24.340;2023-04-24T12:34:52;10.70;;;9.70;;
27728;SDS011;15126;42.186;24.340;2023-04-24T12:37:22;13.63;;;10.03;;
27728;SDS011;15126;42.186;24.340;2023-04-24T12:40:00;11.13;;;10.03;;
27728;SDS011;15126;42.186;24.340;2023-04-24T12:42:30;13.60;;;9.00;;
27728;SDS011;15126;42.186;24.340;2023-04-24T12:44:57;16.03;;;10.93;;
27728;SDS011;15126;42.186;24.340;2023-04-24T12:47:26;13.03;;;11.03;;
27728;SDS011;15126;42.186;24.340;2023-04-24T12:49:53;12.60;;;10.00;;
27728;SDS011;15126;42.186;24.340;2023-04-24T12:52:20;10.37;;;9.30;;
27728;SDS011;15126;42.186;24.340;2023-04-24T12:54:48;11.83;;;10.93;;
27728;SDS011;15126;42.186;24.340;2023-04-24T12:57:15;10.53;;;9.17;;
27728;SDS011;15126;42.186;24.340;2023-04-24T12:59:44;11.83;;;9.17;;
27728;SDS011;15126;42.186;24.340;2023-04-24T13:02:11;11.03;;;9.90;;
27728;SDS011;15126;42.186;24.340;2023-04-24T13:04:38;10.37;;;9.27;;
27728;SDS011;15126;42.186;24.340;2023-04-24T13:07:05;11.23;;;10.07;;
27728;SDS011;15126;42.186;24.340;2023-04-24T13:09:33;16.30;;;10.60;;
27728;SDS011;15126;42.186;24.340;2023-04-24T13:12:00;14.07;;;11.23;;
27728;SDS011;15126;42.186;24.340;2023-04-24T13:14:27;11.80;;;10.60;;
27728;SDS011;15126;42.186;24.340;2023-04-24T13:16:55;14.63;;;10.37;;
27728;SDS011;15126;42.186;24.340;2023-04-24T13:19:27;11.70;;;10.33;;
27728;SDS011;15126;42.186;24.340;2023-04-24T13:21:54;12.00;;;9.90;;
27728;SDS011;15126;42.186;24.340;2023-04-24T13:24:22;9.67;;;8.57;;
27728;SDS011;15126;42.186;24.340;2023-04-24T13:26:50;10.67;;;9.27;;
27728;SDS011;15126;42.186;24.340;2023-04-24T13:29:17;9.10;;;8.20;;
27728;SDS011;15126;42.186;24.340;2023-04-24T13:31:44;9.70;;;8.77;;
27728;SDS011;15126;42.186;24.340;2023-04-24T13:34:12;10.37;;;8.53;;
27728;SDS011;15126;42.186;24.340;2023-04-24T13:36:39;9.67;;;8.67;;
27728;SDS011;15126;42.186;24.340;2023-04-24T13:39:06;12.00;;;8.30;;
27728;SDS011;15126;42.186;24.340;2023-04-24T13:41:32;9.00;;;8.10;;
27728;SDS011;15126;42.186;24.340;2023-04-24T13:44:00;8.20;;;7.50;;
27728;SDS011;15126;42.186;24.340;2023-04-24T13:46:27;8.73;;;7.93;;
27728;SDS011;15126;42.186;24.340;2023-04-24T13:48:54;8.67;;;7.87;;
27728;SDS011;15126;42.186;24.340;2023-04-24T13:51:23;11.53;;;8.50;;
27728;SDS011;15126;42.186;24.340;2023-04-24T13:53:52;9.67;;;8.27;;
27728;SDS011;15126;42.186;24.340;2023-04-24T13:56:19;9.77;;;7.77;;
27728;SDS011;15126;42.186;24.340;2023-04-24T13:58:46;13.87;;;7.97;;
27728;SDS011;15126;42.186;24.340;2023-04-24T14:01:13;8.03;;;7.30;;
27728;SDS011;15126;42.186;24.340;2023-04-24T14:03:40;11.60;;;6.77;;
27728;SDS011;15126;42.186;24.340;2023-04-24T14:06:08;7.97;;;7.23;;
27728;SDS011;15126;42.186;24.340;2023-04-24T14:08:36;7.20;;;6.53;;
27728;SDS011;15126;42.186;24.340;2023-04-24T14:11:03;8.40;;;7.10;;
27728;SDS011;15126;42.186;24.340;2023-04-24T14:13:30;10.70;;;9.10;;
27728;SDS011;15126;42.186;24.340;2023-04-24T14:15:58;9.10;;;8.23;;
27728;SDS011;15126;42.186;24.340;2023-04-24T14:18:24;8.63;;;7.03;;
27728;SDS011;15126;42.186;24.340;2023-04-24T14:20:51;9.20;;;6.87;;
27728;SDS011;15126;42.186;24.340;2023-04-24T14:23:18;7.50;;;6.90;;